Wood Lake, North Dakota
Current Conditions -  °F | °C
As of 6:55 PM on Friday 24 Oct 2014 (Local Time) from KDVL Reporting Station
Clear Clear  
Wind Chill: 57°   Ceiling: Unl
Heat Index: 57°   Visibility: 10mi
Dew Point: 32°   Wind: 13mph
Humidity: 38%   Direction: 290°WNW
Pressure: 29.84"   Gusts: NA
Location:  47.9248°N, 98.8159°W
Report Text: KDVL 242355Z AUTO 29011KT 10SM CLR 14/00 A2984 RMK AO1 10200 20140 402000070 52020
Loading
Personal Weather Stations






























Interactive Weather Map New forecast layout! Learn more

10-Day Weather Forecast

Advertisements
Track Severe Weather on mobile